Terminal Aerodrome Forecast
Issued by NWS

Home | Current Version | Previous Version | Text Only | Print | Product List | Glossary On
Versions: 1 2 3 4 5 6 7 8 9 10 11 12 13 14 15 16 17 18 19 20 21 22 23 24 25 26
000
FTUS43 KILX 051410 AAA
TAFBMI
TAF AMD
KBMI 051410Z 0514/0612 18008KT P6SM SCT080 BKN150
     FM051600 20012KT P6SM SCT150
     FM051900 22012G18KT P6SM VCTS BKN040CB
     FM060000 18005KT P6SM BKN050=

USA.gov is the U.S. government's official web portal to all federal, state and local government web resources and services.